sensor_id;sensor_type;location;lat;lon;timestamp;P1;durP1;ratioP1;P2;durP2;ratioP2
75781;SDS011;64400;44.762;37.698;2023-01-15T00:02:13;22.83;;;12.45;;
75781;SDS011;64400;44.762;37.698;2023-01-15T00:04:43;24.80;;;12.15;;
75781;SDS011;64400;44.762;37.698;2023-01-15T00:07:11;28.88;;;14.13;;
75781;SDS011;64400;44.762;37.698;2023-01-15T00:09:39;27.45;;;15.63;;
75781;SDS011;64400;44.762;37.698;2023-01-15T00:12:06;31.05;;;15.38;;
75781;SDS011;64400;44.762;37.698;2023-01-15T00:14:35;31.42;;;15.98;;
75781;SDS011;64400;44.762;37.698;2023-01-15T00:17:03;32.08;;;14.98;;
75781;SDS011;64400;44.762;37.698;2023-01-15T00:19:31;28.42;;;14.13;;
75781;SDS011;64400;44.762;37.698;2023-01-15T00:21:59;26.42;;;13.23;;
75781;SDS011;64400;44.762;37.698;2023-01-15T00:24:26;27.05;;;13.60;;
75781;SDS011;64400;44.762;37.698;2023-01-15T00:27:12;26.08;;;13.52;;
75781;SDS011;64400;44.762;37.698;2023-01-15T00:29:59;32.92;;;15.98;;
75781;SDS011;64400;44.762;37.698;2023-01-15T00:32:29;35.70;;;17.83;;
75781;SDS011;64400;44.762;37.698;2023-01-15T00:34:57;39.90;;;19.95;;
75781;SDS011;64400;44.762;37.698;2023-01-15T00:37:27;40.13;;;20.63;;
75781;SDS011;64400;44.762;37.698;2023-01-15T00:39:55;41.20;;;20.55;;
75781;SDS011;64400;44.762;37.698;2023-01-15T00:42:23;44.45;;;20.33;;
75781;SDS011;64400;44.762;37.698;2023-01-15T00:44:51;45.88;;;21.55;;
75781;SDS011;64400;44.762;37.698;2023-01-15T00:47:18;44.65;;;21.30;;
75781;SDS011;64400;44.762;37.698;2023-01-15T00:49:47;42.55;;;21.27;;
75781;SDS011;64400;44.762;37.698;2023-01-15T00:52:16;43.08;;;21.92;;
75781;SDS011;64400;44.762;37.698;2023-01-15T00:54:44;45.58;;;21.80;;
75781;SDS011;64400;44.762;37.698;2023-01-15T00:57:12;47.78;;;21.70;;
75781;SDS011;64400;44.762;37.698;2023-01-15T00:59:39;40.67;;;20.55;;
75781;SDS011;64400;44.762;37.698;2023-01-15T01:02:07;44.63;;;21.23;;
75781;SDS011;64400;44.762;37.698;2023-01-15T01:04:35;47.92;;;21.35;;
75781;SDS011;64400;44.762;37.698;2023-01-15T01:07:05;42.72;;;20.98;;
75781;SDS011;64400;44.762;37.698;2023-01-15T01:09:33;48.33;;;22.65;;
75781;SDS011;64400;44.762;37.698;2023-01-15T01:12:01;41.25;;;21.27;;
75781;SDS011;64400;44.762;37.698;2023-01-15T01:14:29;42.25;;;22.15;;
75781;SDS011;64400;44.762;37.698;2023-01-15T01:16:57;42.95;;;21.58;;
75781;SDS011;64400;44.762;37.698;2023-01-15T01:19:24;44.20;;;21.70;;
75781;SDS011;64400;44.762;37.698;2023-01-15T01:21:52;47.13;;;23.63;;
75781;SDS011;64400;44.762;37.698;2023-01-15T01:24:21;44.83;;;22.05;;
75781;SDS011;64400;44.762;37.698;2023-01-15T01:26:50;45.28;;;22.13;;
75781;SDS011;64400;44.762;37.698;2023-01-15T01:29:21;41.78;;;21.67;;
75781;SDS011;64400;44.762;37.698;2023-01-15T01:31:50;43.63;;;21.35;;
75781;SDS011;64400;44.762;37.698;2023-01-15T01:34:18;47.53;;;21.77;;
75781;SDS011;64400;44.762;37.698;2023-01-15T01:36:46;43.92;;;21.27;;
75781;SDS011;64400;44.762;37.698;2023-01-15T01:39:15;49.72;;;22.13;;
75781;SDS011;64400;44.762;37.698;2023-01-15T01:41:44;43.72;;;21.63;;
75781;SDS011;64400;44.762;37.698;2023-01-15T01:47:02;44.20;;;21.25;;
75781;SDS011;64400;44.762;37.698;2023-01-15T01:49:34;46.33;;;22.05;;
75781;SDS011;64400;44.762;37.698;2023-01-15T01:52:07;46.97;;;22.23;;
75781;SDS011;64400;44.762;37.698;2023-01-15T01:54:40;45.15;;;22.77;;
75781;SDS011;64400;44.762;37.698;2023-01-15T01:57:10;45.90;;;22.45;;
75781;SDS011;64400;44.762;37.698;2023-01-15T01:59:39;49.65;;;22.98;;
75781;SDS011;64400;44.762;37.698;2023-01-15T02:02:07;44.58;;;21.23;;
75781;SDS011;64400;44.762;37.698;2023-01-15T02:04:35;46.33;;;21.42;;
75781;SDS011;64400;44.762;37.698;2023-01-15T02:07:04;40.75;;;20.75;;
75781;SDS011;64400;44.762;37.698;2023-01-15T02:09:32;45.80;;;21.10;;
75781;SDS011;64400;44.762;37.698;2023-01-15T02:12:04;43.17;;;21.63;;
75781;SDS011;64400;44.762;37.698;2023-01-15T02:15:11;43.03;;;20.77;;
75781;SDS011;64400;44.762;37.698;2023-01-15T02:20:54;47.50;;;22.17;;
75781;SDS011;64400;44.762;37.698;2023-01-15T02:29:07;52.45;;;23.33;;
75781;SDS011;64400;44.762;37.698;2023-01-15T02:31:40;51.97;;;22.23;;
75781;SDS011;64400;44.762;37.698;2023-01-15T02:36:43;46.00;;;21.25;;
75781;SDS011;64400;44.762;37.698;2023-01-15T02:39:23;45.42;;;22.52;;
75781;SDS011;64400;44.762;37.698;2023-01-15T02:41:55;47.42;;;21.17;;
75781;SDS011;64400;44.762;37.698;2023-01-15T02:44:31;44.38;;;21.27;;
75781;SDS011;64400;44.762;37.698;2023-01-15T02:47:02;47.88;;;22.13;;
75781;SDS011;64400;44.762;37.698;2023-01-15T02:49:32;48.22;;;22.15;;
75781;SDS011;64400;44.762;37.698;2023-01-15T02:52:09;48.50;;;20.90;;
75781;SDS011;64400;44.762;37.698;2023-01-15T02:54:54;45.77;;;21.30;;
75781;SDS011;64400;44.762;37.698;2023-01-15T02:57:31;49.92;;;22.10;;
75781;SDS011;64400;44.762;37.698;2023-01-15T03:00:03;46.63;;;21.40;;
75781;SDS011;64400;44.762;37.698;2023-01-15T03:02:35;49.60;;;21.60;;
75781;SDS011;64400;44.762;37.698;2023-01-15T03:05:10;44.70;;;20.15;;
75781;SDS011;64400;44.762;37.698;2023-01-15T03:07:47;47.13;;;19.42;;
75781;SDS011;64400;44.762;37.698;2023-01-15T03:10:21;40.20;;;20.17;;
75781;SDS011;64400;44.762;37.698;2023-01-15T03:13:23;44.55;;;21.30;;
75781;SDS011;64400;44.762;37.698;2023-01-15T03:19:06;47.70;;;21.98;;
75781;SDS011;64400;44.762;37.698;2023-01-15T03:21:57;43.85;;;20.48;;
75781;SDS011;64400;44.762;37.698;2023-01-15T03:24:31;44.83;;;21.60;;
75781;SDS011;64400;44.762;37.698;2023-01-15T03:27:11;48.42;;;21.73;;
75781;SDS011;64400;44.762;37.698;2023-01-15T03:29:45;43.70;;;21.52;;
75781;SDS011;64400;44.762;37.698;2023-01-15T03:32:19;43.40;;;21.02;;
75781;SDS011;64400;44.762;37.698;2023-01-15T03:34:50;48.92;;;21.42;;
75781;SDS011;64400;44.762;37.698;2023-01-15T03:37:21;47.03;;;20.38;;
75781;SDS011;64400;44.762;37.698;2023-01-15T03:39:52;49.00;;;22.17;;
75781;SDS011;64400;44.762;37.698;2023-01-15T03:50:26;48.22;;;21.67;;
75781;SDS011;64400;44.762;37.698;2023-01-15T03:53:09;45.97;;;21.60;;
75781;SDS011;64400;44.762;37.698;2023-01-15T03:55:56;45.53;;;21.63;;
75781;SDS011;64400;44.762;37.698;2023-01-15T03:58:36;57.00;;;23.25;;
75781;SDS011;64400;44.762;37.698;2023-01-15T04:01:14;46.63;;;21.67;;
75781;SDS011;64400;44.762;37.698;2023-01-15T04:03:45;44.28;;;20.98;;
75781;SDS011;64400;44.762;37.698;2023-01-15T04:06:17;57.00;;;23.50;;
75781;SDS011;64400;44.762;37.698;2023-01-15T04:08:46;44.38;;;22.33;;
75781;SDS011;64400;44.762;37.698;2023-01-15T04:11:20;44.58;;;21.63;;
75781;SDS011;64400;44.762;37.698;2023-01-15T04:13:56;42.40;;;21.00;;
75781;SDS011;64400;44.762;37.698;2023-01-15T04:16:34;44.60;;;21.67;;
75781;SDS011;64400;44.762;37.698;2023-01-15T04:19:05;46.67;;;21.98;;
75781;SDS011;64400;44.762;37.698;2023-01-15T04:21:36;47.80;;;21.38;;
75781;SDS011;64400;44.762;37.698;2023-01-15T04:24:04;49.90;;;21.13;;
75781;SDS011;64400;44.762;37.698;2023-01-15T04:26:32;47.33;;;21.38;;
75781;SDS011;64400;44.762;37.698;2023-01-15T04:29:00;42.35;;;21.45;;
75781;SDS011;64400;44.762;37.698;2023-01-15T04:31:28;43.70;;;20.27;;
75781;SDS011;64400;44.762;37.698;2023-01-15T04:33:58;44.20;;;20.65;;
75781;SDS011;64400;44.762;37.698;2023-01-15T04:36:26;55.90;;;22.48;;
75781;SDS011;64400;44.762;37.698;2023-01-15T04:38:55;51.20;;;22.77;;
75781;SDS011;64400;44.762;37.698;2023-01-15T04:41:25;51.78;;;23.30;;
75781;SDS011;64400;44.762;37.698;2023-01-15T04:44:12;54.50;;;23.38;;
75781;SDS011;64400;44.762;37.698;2023-01-15T04:46:42;52.88;;;22.95;;
75781;SDS011;64400;44.762;37.698;2023-01-15T04:49:15;60.40;;;24.20;;
75781;SDS011;64400;44.762;37.698;2023-01-15T04:51:44;50.20;;;22.20;;
75781;SDS011;64400;44.762;37.698;2023-01-15T04:54:13;46.92;;;20.63;;
75781;SDS011;64400;44.762;37.698;2023-01-15T04:56:43;47.17;;;20.98;;
75781;SDS011;64400;44.762;37.698;2023-01-15T04:59:13;41.15;;;20.83;;
75781;SDS011;64400;44.762;37.698;2023-01-15T05:01:41;46.85;;;21.73;;
75781;SDS011;64400;44.762;37.698;2023-01-15T05:04:28;44.45;;;21.33;;
75781;SDS011;64400;44.762;37.698;2023-01-15T05:06:56;46.38;;;22.45;;
75781;SDS011;64400;44.762;37.698;2023-01-15T05:09:24;53.55;;;23.40;;
75781;SDS011;64400;44.762;37.698;2023-01-15T05:11:52;45.75;;;22.15;;
75781;SDS011;64400;44.762;37.698;2023-01-15T05:14:20;45.33;;;22.27;;
75781;SDS011;64400;44.762;37.698;2023-01-15T05:16:48;48.50;;;21.25;;
75781;SDS011;64400;44.762;37.698;2023-01-15T05:19:15;43.08;;;20.88;;
75781;SDS011;64400;44.762;37.698;2023-01-15T05:21:43;45.72;;;21.55;;
75781;SDS011;64400;44.762;37.698;2023-01-15T05:24:13;47.92;;;21.00;;
75781;SDS011;64400;44.762;37.698;2023-01-15T05:26:43;52.65;;;21.63;;
75781;SDS011;64400;44.762;37.698;2023-01-15T05:29:12;50.03;;;22.10;;
75781;SDS011;64400;44.762;37.698;2023-01-15T05:31:40;50.85;;;23.40;;
75781;SDS011;64400;44.762;37.698;2023-01-15T05:34:11;41.42;;;20.77;;
75781;SDS011;64400;44.762;37.698;2023-01-15T05:36:40;43.05;;;19.48;;
75781;SDS011;64400;44.762;37.698;2023-01-15T05:39:08;44.90;;;19.77;;
75781;SDS011;64400;44.762;37.698;2023-01-15T05:41:36;42.85;;;20.70;;
75781;SDS011;64400;44.762;37.698;2023-01-15T05:44:17;38.63;;;20.23;;
75781;SDS011;64400;44.762;37.698;2023-01-15T05:46:56;40.25;;;19.48;;
75781;SDS011;64400;44.762;37.698;2023-01-15T05:49:26;41.92;;;18.42;;
75781;SDS011;64400;44.762;37.698;2023-01-15T05:51:57;44.53;;;19.90;;
75781;SDS011;64400;44.762;37.698;2023-01-15T05:54:31;48.25;;;21.08;;
75781;SDS011;64400;44.762;37.698;2023-01-15T05:57:00;43.83;;;19.48;;
75781;SDS011;64400;44.762;37.698;2023-01-15T05:59:29;41.13;;;19.80;;
75781;SDS011;64400;44.762;37.698;2023-01-15T06:01:58;41.95;;;19.75;;
75781;SDS011;64400;44.762;37.698;2023-01-15T06:04:26;39.58;;;18.85;;
75781;SDS011;64400;44.762;37.698;2023-01-15T06:06:55;44.40;;;19.23;;
75781;SDS011;64400;44.762;37.698;2023-01-15T06:09:24;43.20;;;21.05;;
75781;SDS011;64400;44.762;37.698;2023-01-15T06:11:54;44.38;;;20.17;;
75781;SDS011;64400;44.762;37.698;2023-01-15T06:14:22;46.13;;;20.50;;
75781;SDS011;64400;44.762;37.698;2023-01-15T06:16:50;42.47;;;21.00;;
75781;SDS011;64400;44.762;37.698;2023-01-15T06:19:18;42.28;;;19.70;;
75781;SDS011;64400;44.762;37.698;2023-01-15T06:21:46;42.40;;;18.40;;
75781;SDS011;64400;44.762;37.698;2023-01-15T06:24:15;40.35;;;18.20;;
75781;SDS011;64400;44.762;37.698;2023-01-15T06:26:44;43.33;;;18.65;;
75781;SDS011;64400;44.762;37.698;2023-01-15T06:29:12;45.45;;;21.40;;
75781;SDS011;64400;44.762;37.698;2023-01-15T06:31:43;49.10;;;20.35;;
75781;SDS011;64400;44.762;37.698;2023-01-15T06:34:11;45.33;;;19.75;;
75781;SDS011;64400;44.762;37.698;2023-01-15T06:36:39;51.40;;;20.50;;
75781;SDS011;64400;44.762;37.698;2023-01-15T06:39:07;45.45;;;20.05;;
75781;SDS011;64400;44.762;37.698;2023-01-15T06:41:35;52.03;;;20.08;;
75781;SDS011;64400;44.762;37.698;2023-01-15T06:44:21;47.88;;;19.98;;
75781;SDS011;64400;44.762;37.698;2023-01-15T06:47:16;48.63;;;21.00;;
75781;SDS011;64400;44.762;37.698;2023-01-15T06:52:25;51.42;;;21.60;;
75781;SDS011;64400;44.762;37.698;2023-01-15T06:54:54;51.55;;;23.23;;
75781;SDS011;64400;44.762;37.698;2023-01-15T06:57:22;53.78;;;23.23;;
75781;SDS011;64400;44.762;37.698;2023-01-15T06:59:50;61.17;;;23.48;;
75781;SDS011;64400;44.762;37.698;2023-01-15T07:02:18;50.70;;;22.42;;
75781;SDS011;64400;44.762;37.698;2023-01-15T07:04:48;58.53;;;23.23;;
75781;SDS011;64400;44.762;37.698;2023-01-15T07:07:17;77.18;;;29.15;;
75781;SDS011;64400;44.762;37.698;2023-01-15T07:09:46;96.78;;;34.13;;
75781;SDS011;64400;44.762;37.698;2023-01-15T07:12:14;99.10;;;35.90;;
75781;SDS011;64400;44.762;37.698;2023-01-15T07:14:42;90.80;;;33.28;;
75781;SDS011;64400;44.762;37.698;2023-01-15T07:17:11;100.15;;;34.20;;
75781;SDS011;64400;44.762;37.698;2023-01-15T07:19:39;101.93;;;34.42;;
75781;SDS011;64400;44.762;37.698;2023-01-15T07:22:07;100.57;;;35.92;;
75781;SDS011;64400;44.762;37.698;2023-01-15T07:24:36;86.13;;;32.58;;
75781;SDS011;64400;44.762;37.698;2023-01-15T07:27:04;96.25;;;34.85;;
75781;SDS011;64400;44.762;37.698;2023-01-15T07:29:33;85.45;;;34.58;;
75781;SDS011;64400;44.762;37.698;2023-01-15T07:32:01;69.65;;;28.20;;
75781;SDS011;64400;44.762;37.698;2023-01-15T07:34:29;59.50;;;25.25;;
75781;SDS011;64400;44.762;37.698;2023-01-15T07:36:57;58.88;;;25.38;;
75781;SDS011;64400;44.762;37.698;2023-01-15T07:39:24;56.65;;;22.92;;
75781;SDS011;64400;44.762;37.698;2023-01-15T07:41:52;71.35;;;26.88;;
75781;SDS011;64400;44.762;37.698;2023-01-15T07:44:38;59.33;;;25.55;;
75781;SDS011;64400;44.762;37.698;2023-01-15T07:47:25;60.90;;;25.00;;
75781;SDS011;64400;44.762;37.698;2023-01-15T07:50:26;64.80;;;23.63;;
75781;SDS011;64400;44.762;37.698;2023-01-15T07:52:54;52.47;;;20.52;;
75781;SDS011;64400;44.762;37.698;2023-01-15T07:55:21;53.42;;;20.80;;
75781;SDS011;64400;44.762;37.698;2023-01-15T07:57:50;46.22;;;18.23;;
75781;SDS011;64400;44.762;37.698;2023-01-15T08:00:20;43.25;;;18.48;;
75781;SDS011;64400;44.762;37.698;2023-01-15T08:02:50;44.55;;;18.10;;
75781;SDS011;64400;44.762;37.698;2023-01-15T08:05:18;44.60;;;18.17;;
75781;SDS011;64400;44.762;37.698;2023-01-15T08:07:46;39.30;;;14.75;;
75781;SDS011;64400;44.762;37.698;2023-01-15T08:10:15;45.30;;;16.00;;
75781;SDS011;64400;44.762;37.698;2023-01-15T08:12:43;21.52;;;9.63;;
75781;SDS011;64400;44.762;37.698;2023-01-15T08:15:30;30.33;;;12.68;;
75781;SDS011;64400;44.762;37.698;2023-01-15T08:18:01;22.65;;;10.90;;
75781;SDS011;64400;44.762;37.698;2023-01-15T08:20:29;23.42;;;8.98;;
75781;SDS011;64400;44.762;37.698;2023-01-15T08:22:59;22.92;;;9.20;;
75781;SDS011;64400;44.762;37.698;2023-01-15T08:25:27;18.95;;;8.30;;
75781;SDS011;64400;44.762;37.698;2023-01-15T08:27:58;21.30;;;9.00;;
75781;SDS011;64400;44.762;37.698;2023-01-15T08:30:29;21.23;;;8.70;;
75781;SDS011;64400;44.762;37.698;2023-01-15T08:33:00;17.33;;;8.85;;
75781;SDS011;64400;44.762;37.698;2023-01-15T08:35:30;17.27;;;7.93;;
75781;SDS011;64400;44.762;37.698;2023-01-15T08:37:58;17.63;;;8.63;;
75781;SDS011;64400;44.762;37.698;2023-01-15T08:40:29;19.38;;;8.50;;
75781;SDS011;64400;44.762;37.698;2023-01-15T08:42:57;22.27;;;10.82;;
75781;SDS011;64400;44.762;37.698;2023-01-15T08:45:25;24.02;;;11.13;;
75781;SDS011;64400;44.762;37.698;2023-01-15T08:47:54;22.83;;;9.60;;
75781;SDS011;64400;44.762;37.698;2023-01-15T08:50:23;26.00;;;9.90;;
75781;SDS011;64400;44.762;37.698;2023-01-15T08:52:51;29.92;;;12.95;;
75781;SDS011;64400;44.762;37.698;2023-01-15T08:55:19;26.33;;;10.98;;
75781;SDS011;64400;44.762;37.698;2023-01-15T08:57:47;16.52;;;7.38;;
75781;SDS011;64400;44.762;37.698;2023-01-15T09:00:14;23.10;;;7.85;;
75781;SDS011;64400;44.762;37.698;2023-01-15T09:02:43;17.20;;;5.88;;
75781;SDS011;64400;44.762;37.698;2023-01-15T09:05:11;20.67;;;6.90;;
75781;SDS011;64400;44.762;37.698;2023-01-15T09:07:39;16.95;;;6.97;;
75781;SDS011;64400;44.762;37.698;2023-01-15T09:10:07;15.60;;;6.50;;
75781;SDS011;64400;44.762;37.698;2023-01-15T09:12:35;12.70;;;4.70;;
75781;SDS011;64400;44.762;37.698;2023-01-15T09:15:03;17.73;;;5.85;;
75781;SDS011;64400;44.762;37.698;2023-01-15T09:17:32;16.95;;;5.53;;
75781;SDS011;64400;44.762;37.698;2023-01-15T09:20:00;9.07;;;3.97;;
75781;SDS011;64400;44.762;37.698;2023-01-15T09:22:29;11.07;;;3.50;;
75781;SDS011;64400;44.762;37.698;2023-01-15T09:24:57;6.32;;;2.85;;
75781;SDS011;64400;44.762;37.698;2023-01-15T09:27:26;13.15;;;3.65;;
75781;SDS011;64400;44.762;37.698;2023-01-15T09:29:55;14.98;;;4.13;;
75781;SDS011;64400;44.762;37.698;2023-01-15T09:32:23;8.18;;;3.80;;
75781;SDS011;64400;44.762;37.698;2023-01-15T09:34:51;8.80;;;3.35;;
75781;SDS011;64400;44.762;37.698;2023-01-15T09:37:19;9.02;;;5.60;;
75781;SDS011;64400;44.762;37.698;2023-01-15T09:39:47;10.75;;;6.88;;
75781;SDS011;64400;44.762;37.698;2023-01-15T09:44:53;7.00;;;3.47;;
75781;SDS011;64400;44.762;37.698;2023-01-15T09:50:58;8.35;;;2.50;;
75781;SDS011;64400;44.762;37.698;2023-01-15T09:53:36;11.93;;;4.28;;
75781;SDS011;64400;44.762;37.698;2023-01-15T09:56:22;9.55;;;3.72;;
75781;SDS011;64400;44.762;37.698;2023-01-15T09:58:54;8.73;;;3.70;;
75781;SDS011;64400;44.762;37.698;2023-01-15T10:01:30;7.57;;;2.97;;
75781;SDS011;64400;44.762;37.698;2023-01-15T10:07:05;6.85;;;2.30;;
75781;SDS011;64400;44.762;37.698;2023-01-15T10:09:33;4.75;;;2.65;;
75781;SDS011;64400;44.762;37.698;2023-01-15T10:12:17;8.02;;;3.00;;
75781;SDS011;64400;44.762;37.698;2023-01-15T10:17:55;8.68;;;3.50;;
75781;SDS011;64400;44.762;37.698;2023-01-15T10:43:19;10.38;;;2.72;;
75781;SDS011;64400;44.762;37.698;2023-01-15T10:46:09;3.97;;;1.90;;
75781;SDS011;64400;44.762;37.698;2023-01-15T10:48:44;4.53;;;2.28;;
75781;SDS011;64400;44.762;37.698;2023-01-15T10:54:02;8.45;;;2.65;;
75781;SDS011;64400;44.762;37.698;2023-01-15T10:56:41;8.05;;;3.10;;
75781;SDS011;64400;44.762;37.698;2023-01-15T11:01:44;8.10;;;3.55;;
75781;SDS011;64400;44.762;37.698;2023-01-15T11:04:12;7.45;;;3.72;;
75781;SDS011;64400;44.762;37.698;2023-01-15T11:06:40;7.00;;;3.30;;
75781;SDS011;64400;44.762;37.698;2023-01-15T11:09:16;8.48;;;3.47;;
75781;SDS011;64400;44.762;37.698;2023-01-15T11:11:49;6.65;;;3.50;;
75781;SDS011;64400;44.762;37.698;2023-01-15T11:17:34;8.10;;;3.58;;
75781;SDS011;64400;44.762;37.698;2023-01-15T11:23:07;6.07;;;3.25;;
75781;SDS011;64400;44.762;37.698;2023-01-15T11:25:36;10.73;;;3.78;;
75781;SDS011;64400;44.762;37.698;2023-01-15T11:28:10;9.50;;;3.70;;
75781;SDS011;64400;44.762;37.698;2023-01-15T11:30:41;8.88;;;4.30;;
75781;SDS011;64400;44.762;37.698;2023-01-15T11:33:21;8.15;;;3.55;;
75781;SDS011;64400;44.762;37.698;2023-01-15T11:35:52;8.63;;;4.30;;
75781;SDS011;64400;44.762;37.698;2023-01-15T11:38:26;9.10;;;4.22;;
75781;SDS011;64400;44.762;37.698;2023-01-15T11:40:58;11.32;;;5.35;;
75781;SDS011;64400;44.762;37.698;2023-01-15T11:43:28;9.98;;;5.82;;
75781;SDS011;64400;44.762;37.698;2023-01-15T11:46:23;11.90;;;4.78;;
75781;SDS011;64400;44.762;37.698;2023-01-15T11:49:09;9.35;;;5.03;;
75781;SDS011;64400;44.762;37.698;2023-01-15T11:51:59;12.25;;;4.82;;
75781;SDS011;64400;44.762;37.698;2023-01-15T11:54:29;10.73;;;4.45;;
75781;SDS011;64400;44.762;37.698;2023-01-15T11:56:59;12.50;;;4.88;;
75781;SDS011;64400;44.762;37.698;2023-01-15T11:59:27;7.10;;;4.15;;
75781;SDS011;64400;44.762;37.698;2023-01-15T12:01:57;8.43;;;3.30;;
75781;SDS011;64400;44.762;37.698;2023-01-15T12:04:34;7.43;;;3.25;;
75781;SDS011;64400;44.762;37.698;2023-01-15T12:07:13;8.80;;;4.25;;
75781;SDS011;64400;44.762;37.698;2023-01-15T12:26:31;10.45;;;3.97;;
75781;SDS011;64400;44.762;37.698;2023-01-15T12:29:19;10.43;;;3.80;;
75781;SDS011;64400;44.762;37.698;2023-01-15T12:31:54;13.75;;;4.18;;
75781;SDS011;64400;44.762;37.698;2023-01-15T12:34:30;13.48;;;5.32;;
75781;SDS011;64400;44.762;37.698;2023-01-15T12:37:10;12.07;;;4.90;;
75781;SDS011;64400;44.762;37.698;2023-01-15T12:42:41;9.38;;;4.07;;
75781;SDS011;64400;44.762;37.698;2023-01-15T12:45:30;9.38;;;3.90;;
75781;SDS011;64400;44.762;37.698;2023-01-15T12:48:15;10.68;;;4.10;;
75781;SDS011;64400;44.762;37.698;2023-01-15T12:50:49;11.57;;;4.13;;
75781;SDS011;64400;44.762;37.698;2023-01-15T12:53:41;15.68;;;4.43;;
75781;SDS011;64400;44.762;37.698;2023-01-15T12:59:12;12.85;;;4.57;;
75781;SDS011;64400;44.762;37.698;2023-01-15T13:04:51;11.23;;;5.70;;
75781;SDS011;64400;44.762;37.698;2023-01-15T13:07:26;12.37;;;4.63;;
75781;SDS011;64400;44.762;37.698;2023-01-15T13:12:57;10.00;;;4.90;;
75781;SDS011;64400;44.762;37.698;2023-01-15T13:15:41;12.38;;;4.75;;
75781;SDS011;64400;44.762;37.698;2023-01-15T13:18:50;10.88;;;4.22;;
75781;SDS011;64400;44.762;37.698;2023-01-15T13:21:17;10.57;;;4.82;;
75781;SDS011;64400;44.762;37.698;2023-01-15T13:26:40;15.05;;;5.57;;
75781;SDS011;64400;44.762;37.698;2023-01-15T13:29:32;13.73;;;5.30;;
75781;SDS011;64400;44.762;37.698;2023-01-15T13:32:13;12.73;;;5.72;;
75781;SDS011;64400;44.762;37.698;2023-01-15T13:40:01;16.73;;;6.80;;
75781;SDS011;64400;44.762;37.698;2023-01-15T13:42:44;18.92;;;8.40;;
75781;SDS011;64400;44.762;37.698;2023-01-15T13:47:56;14.80;;;6.35;;
75781;SDS011;64400;44.762;37.698;2023-01-15T13:50:29;13.65;;;5.78;;
75781;SDS011;64400;44.762;37.698;2023-01-15T13:53:00;12.00;;;5.38;;
75781;SDS011;64400;44.762;37.698;2023-01-15T13:55:50;14.88;;;6.50;;
75781;SDS011;64400;44.762;37.698;2023-01-15T14:01:31;16.13;;;6.75;;
75781;SDS011;64400;44.762;37.698;2023-01-15T14:25:44;16.55;;;7.75;;
75781;SDS011;64400;44.762;37.698;2023-01-15T14:28:36;40.85;;;16.08;;
75781;SDS011;64400;44.762;37.698;2023-01-15T14:34:23;46.10;;;18.10;;
75781;SDS011;64400;44.762;37.698;2023-01-15T14:36:59;39.05;;;17.17;;
75781;SDS011;64400;44.762;37.698;2023-01-15T14:39:46;33.10;;;11.50;;
75781;SDS011;64400;44.762;37.698;2023-01-15T14:42:16;25.98;;;10.05;;
75781;SDS011;64400;44.762;37.698;2023-01-15T14:47:47;30.33;;;16.42;;
75781;SDS011;64400;44.762;37.698;2023-01-15T14:52:51;26.08;;;10.68;;
75781;SDS011;64400;44.762;37.698;2023-01-15T14:55:25;39.80;;;10.63;;
75781;SDS011;64400;44.762;37.698;2023-01-15T14:58:09;34.70;;;11.82;;
75781;SDS011;64400;44.762;37.698;2023-01-15T15:00:44;20.10;;;9.70;;
75781;SDS011;64400;44.762;37.698;2023-01-15T15:03:16;26.17;;;11.77;;
75781;SDS011;64400;44.762;37.698;2023-01-15T15:05:48;25.75;;;10.43;;
75781;SDS011;64400;44.762;37.698;2023-01-15T15:08:17;23.83;;;9.75;;
75781;SDS011;64400;44.762;37.698;2023-01-15T15:10:49;18.42;;;8.23;;
75781;SDS011;64400;44.762;37.698;2023-01-15T15:13:31;26.15;;;8.75;;
75781;SDS011;64400;44.762;37.698;2023-01-15T15:18:40;20.85;;;8.13;;
75781;SDS011;64400;44.762;37.698;2023-01-15T15:26:31;41.78;;;15.55;;
75781;SDS011;64400;44.762;37.698;2023-01-15T15:31:32;39.03;;;15.45;;
75781;SDS011;64400;44.762;37.698;2023-01-15T15:34:05;26.60;;;13.02;;
75781;SDS011;64400;44.762;37.698;2023-01-15T15:36:34;22.67;;;11.27;;
75781;SDS011;64400;44.762;37.698;2023-01-15T15:39:18;30.33;;;12.02;;
75781;SDS011;64400;44.762;37.698;2023-01-15T15:41:52;37.25;;;15.25;;
75781;SDS011;64400;44.762;37.698;2023-01-15T15:44:58;60.85;;;33.17;;
75781;SDS011;64400;44.762;37.698;2023-01-15T15:47:45;43.60;;;20.45;;
75781;SDS011;64400;44.762;37.698;2023-01-15T15:50:33;149.77;;;109.35;;
75781;SDS011;64400;44.762;37.698;2023-01-15T15:53:01;46.10;;;26.10;;
75781;SDS011;64400;44.762;37.698;2023-01-15T15:55:35;40.78;;;23.10;;
75781;SDS011;64400;44.762;37.698;2023-01-15T15:58:06;53.17;;;23.35;;
75781;SDS011;64400;44.762;37.698;2023-01-15T16:00:39;32.60;;;17.08;;
75781;SDS011;64400;44.762;37.698;2023-01-15T16:03:17;36.22;;;17.38;;
75781;SDS011;64400;44.762;37.698;2023-01-15T16:06:05;37.42;;;18.95;;
75781;SDS011;64400;44.762;37.698;2023-01-15T16:08:34;47.80;;;21.20;;
75781;SDS011;64400;44.762;37.698;2023-01-15T16:11:06;45.88;;;19.58;;
75781;SDS011;64400;44.762;37.698;2023-01-15T16:13:41;47.90;;;19.55;;
75781;SDS011;64400;44.762;37.698;2023-01-15T16:16:15;43.70;;;19.48;;
75781;SDS011;64400;44.762;37.698;2023-01-15T16:18:49;48.78;;;19.58;;
75781;SDS011;64400;44.762;37.698;2023-01-15T16:21:21;49.20;;;19.52;;
75781;SDS011;64400;44.762;37.698;2023-01-15T16:24:26;80.07;;;26.13;;
75781;SDS011;64400;44.762;37.698;2023-01-15T16:26:59;50.30;;;20.85;;
75781;SDS011;64400;44.762;37.698;2023-01-15T16:29:32;26.67;;;11.65;;
75781;SDS011;64400;44.762;37.698;2023-01-15T16:32:08;28.10;;;12.35;;
75781;SDS011;64400;44.762;37.698;2023-01-15T16:34:38;27.30;;;10.77;;
75781;SDS011;64400;44.762;37.698;2023-01-15T16:37:23;25.80;;;10.73;;
75781;SDS011;64400;44.762;37.698;2023-01-15T16:39:53;44.40;;;21.70;;
75781;SDS011;64400;44.762;37.698;2023-01-15T16:42:25;41.08;;;20.05;;
75781;SDS011;64400;44.762;37.698;2023-01-15T16:44:54;31.90;;;14.77;;
75781;SDS011;64400;44.762;37.698;2023-01-15T16:47:31;29.88;;;13.38;;
75781;SDS011;64400;44.762;37.698;2023-01-15T16:52:56;39.25;;;14.35;;
75781;SDS011;64400;44.762;37.698;2023-01-15T16:55:39;31.75;;;11.80;;
75781;SDS011;64400;44.762;37.698;2023-01-15T17:00:45;25.17;;;9.50;;
75781;SDS011;64400;44.762;37.698;2023-01-15T17:03:22;25.88;;;10.05;;
75781;SDS011;64400;44.762;37.698;2023-01-15T17:05:56;25.73;;;10.73;;
75781;SDS011;64400;44.762;37.698;2023-01-15T17:08:36;22.73;;;9.32;;
75781;SDS011;64400;44.762;37.698;2023-01-15T17:11:14;21.70;;;9.00;;
75781;SDS011;64400;44.762;37.698;2023-01-15T17:14:09;24.67;;;9.38;;
75781;SDS011;64400;44.762;37.698;2023-01-15T17:19:49;26.10;;;9.23;;
75781;SDS011;64400;44.762;37.698;2023-01-15T17:22:23;26.85;;;9.63;;
75781;SDS011;64400;44.762;37.698;2023-01-15T17:24:53;25.23;;;9.57;;
75781;SDS011;64400;44.762;37.698;2023-01-15T17:27:23;25.38;;;10.23;;
75781;SDS011;64400;44.762;37.698;2023-01-15T17:29:52;24.23;;;9.23;;
75781;SDS011;64400;44.762;37.698;2023-01-15T17:34:56;27.15;;;10.85;;
75781;SDS011;64400;44.762;37.698;2023-01-15T17:37:24;24.92;;;11.07;;